Time;durP1;ratioP1;P1;durP2;ratioP2;P2;SDS_P1;SDS_P2;PMS_P1;PMS_P2;Temp;Humidity;BMP_temperature;BMP_pressure;BME280_temperature;BME280_humidity;BME280_pressure;Samples;Min_cycle;Max_cycle;Signal;HPM_P1;HPM_P2
2023/07/05 00:01:14;;;;;;;4.70;1.85;;;;;17.00;93839.00;;;;7393666;19;20216;-75
2023/07/05 00:03:42;;;;;;;2.40;1.95;;;;;16.90;93843.00;;;;7394598;19;20639;-76
2023/07/05 00:06:17;;;;;;;3.38;2.20;;;;;16.80;93834.00;;;;7393471;19;20137;-72
2023/07/05 00:08:45;;;;;;;4.45;1.88;;;;;16.90;93829.00;;;;7395812;19;20160;-75
2023/07/05 00:11:13;;;;;;;3.05;1.73;;;;;16.80;93824.00;;;;7393673;19;20196;-74
2023/07/05 00:13:49;;;;;;;4.25;2.03;;;;;16.80;93835.00;;;;7391419;19;20741;-75
2023/07/05 00:16:24;;;;;;;2.90;2.22;;;;;16.80;93824.00;;;;7393270;19;20136;-75
2023/07/05 00:18:53;;;;;;;4.28;1.90;;;;;16.80;93821.00;;;;7393501;19;20137;-76
2023/07/05 00:21:23;;;;;;;2.20;1.60;;;;;16.80;93810.00;;;;7394963;19;20137;-80
2023/07/05 00:23:57;;;;;;;2.30;2.00;;;;;16.70;93819.00;;;;7394451;19;20165;-77
2023/07/05 00:26:25;;;;;;;3.55;1.92;;;;;16.90;93814.00;;;;7393539;19;20167;-78
2023/07/05 00:29:00;;;;;;;2.35;1.83;;;;;16.80;93809.00;;;;7398950;19;20147;-77
2023/07/05 00:31:27;;;;;;;2.50;1.80;;;;;17.00;93807.00;;;;7401101;19;20154;-77
2023/07/05 00:34:02;;;;;;;1.92;1.50;;;;;16.90;93808.00;;;;7396052;19;20884;-79
2023/07/05 00:36:37;;;;;;;3.08;1.83;;;;;16.90;93798.00;;;;7400592;19;20132;-78
2023/07/05 00:39:17;;;;;;;1.63;1.42;;;;;16.90;93790.00;;;;7397666;19;20152;-77
2023/07/05 00:41:51;;;;;;;2.75;1.70;;;;;16.90;93780.00;;;;7397398;19;20648;-79
2023/07/05 00:44:27;;;;;;;1.77;1.40;;;;;17.00;93787.00;;;;7400098;19;20133;-78
2023/07/05 00:47:03;;;;;;;2.15;1.80;;;;;17.00;93777.00;;;;7401458;19;20147;-78
2023/07/05 00:49:39;;;;;;;2.80;1.48;;;;;17.00;93768.00;;;;7401485;19;20640;-78
2023/07/05 00:52:14;;;;;;;1.73;1.40;;;;;16.90;93785.00;;;;7400894;19;20533;-78
2023/07/05 00:54:56;;;;;;;3.70;2.08;;;;;17.00;93784.00;;;;7402239;19;20137;-78
2023/07/05 00:57:36;;;;;;;2.33;1.60;;;;;17.10;93801.00;;;;7400875;19;20129;-79
2023/07/05 01:00:09;;;;;;;2.22;1.63;;;;;17.20;93796.00;;;;7399744;19;20145;-78
2023/07/05 01:02:48;;;;;;;2.88;1.70;;;;;17.20;93797.00;;;;7398285;19;20168;-78
2023/07/05 01:05:17;;;;;;;3.10;2.08;;;;;16.80;93790.00;;;;7396179;19;20145;-79
2023/07/05 01:07:52;;;;;;;3.50;1.67;;;;;16.40;93781.00;;;;7399571;19;20715;-78
2023/07/05 01:10:22;;;;;;;3.47;1.88;;;;;16.00;93777.00;;;;7401903;19;20153;-79
2023/07/05 01:13:13;;;;;;;3.92;1.95;;;;;15.60;93772.00;;;;7399335;19;20152;-78
2023/07/05 01:15:55;;;;;;;3.28;1.80;;;;;15.40;93791.00;;;;7399215;19;20152;-77
2023/07/05 01:18:38;;;;;;;2.55;1.92;;;;;15.30;93783.00;;;;7398483;19;20518;-77
2023/07/05 01:21:43;;;;;;;2.60;1.95;;;;;15.20;93784.00;;;;7400334;19;20928;-78
2023/07/05 01:25:00;;;;;;;2.15;1.95;;;;;15.00;93792.00;;;;7395476;19;20494;-78
2023/07/05 01:28:13;;;;;;;2.55;2.05;;;;;15.10;93786.00;;;;7398322;19;20161;-77
2023/07/05 01:31:15;;;;;;;3.85;2.20;;;;;15.00;93790.00;;;;7396727;19;20136;-78
2023/07/05 01:34:06;;;;;;;3.65;1.90;;;;;14.80;93795.00;;;;7397625;19;20660;-78
2023/07/05 01:36:34;;;;;;;2.67;2.00;;;;;14.80;93795.00;;;;7398576;19;20137;-77
2023/07/05 01:39:08;;;;;;;4.07;2.03;;;;;14.80;93798.00;;;;7395576;19;20150;-78
2023/07/05 01:41:48;;;;;;;3.38;2.08;;;;;14.60;93800.00;;;;7402394;19;20137;-78
2023/07/05 01:44:23;;;;;;;5.85;2.63;;;;;14.70;93816.00;;;;7398249;19;20488;-78
2023/07/05 01:47:17;;;;;;;3.00;2.30;;;;;14.60;93817.00;;;;7399791;19;20600;-77
2023/07/05 01:50:20;;;;;;;3.72;2.10;;;;;14.70;93818.00;;;;7397902;19;20157;-77
2023/07/05 01:53:08;;;;;;;2.65;2.20;;;;;14.90;93818.00;;;;7398996;19;20200;-77
2023/07/05 01:56:04;;;;;;;3.55;2.13;;;;;15.10;93830.00;;;;7398126;19;20137;-76
2023/07/05 01:58:49;;;;;;;2.33;1.70;;;;;15.30;93816.00;;;;7400519;19;20141;-77
2023/07/05 02:01:18;;;;;;;5.38;2.00;;;;;15.50;93823.00;;;;7399181;19;20610;-78
2023/07/05 02:03:56;;;;;;;2.40;1.60;;;;;15.70;93808.00;;;;7398247;19;20152;-78
2023/07/05 02:06:33;;;;;;;1.80;1.65;;;;;15.60;93813.00;;;;7400019;19;20143;-77
2023/07/05 02:09:10;;;;;;;2.92;1.52;;;;;15.60;93817.00;;;;7397976;19;20145;-76
2023/07/05 02:11:45;;;;;;;3.53;1.83;;;;;15.70;93810.00;;;;7398318;19;20151;-76
2023/07/05 02:14:20;;;;;;;3.00;1.58;;;;;15.80;93812.00;;;;7405025;19;20518;-76
2023/07/05 02:16:54;;;;;;;6.50;1.70;;;;;15.70;93809.00;;;;7399302;19;20139;-75
2023/07/05 02:19:22;;;;;;;1.88;1.70;;;;;15.60;93799.00;;;;7397584;19;20140;-75
2023/07/05 02:21:57;;;;;;;1.83;1.52;;;;;15.50;93791.00;;;;7400517;19;20587;-75
2023/07/05 02:24:31;;;;;;;4.93;2.08;;;;;15.40;93800.00;;;;7399252;19;20132;-75
2023/07/05 02:27:06;;;;;;;2.13;1.63;;;;;15.30;93797.00;;;;7399945;19;20145;-76
2023/07/05 02:29:34;;;;;;;1.35;1.25;;;;;15.20;93802.00;;;;7401655;19;20742;-75
2023/07/05 02:32:10;;;;;;;2.10;1.50;;;;;15.20;93800.00;;;;7396639;19;20148;-76
2023/07/05 02:34:40;;;;;;;1.70;1.50;;;;;15.10;93793.00;;;;7402345;19;20154;-74
2023/07/05 02:37:15;;;;;;;1.85;1.50;;;;;15.00;93792.00;;;;7397851;19;20156;-74
2023/07/05 02:39:44;;;;;;;1.52;1.42;;;;;14.90;93784.00;;;;7397824;19;20141;-75
2023/07/05 02:42:25;;;;;;;1.70;1.48;;;;;14.80;93780.00;;;;7397268;19;20764;-75
2023/07/05 02:45:04;;;;;;;2.80;1.27;;;;;14.80;93783.00;;;;7401936;19;20153;-76
2023/07/05 02:47:41;;;;;;;4.80;2.00;;;;;14.90;93790.00;;;;7403081;19;20587;-77
2023/07/05 02:50:09;;;;;;;2.30;1.58;;;;;14.90;93788.00;;;;7398883;19;20141;-76
2023/07/05 02:52:47;;;;;;;3.63;1.30;;;;;15.10;93798.00;;;;7401654;19;20152;-76
2023/07/05 02:55:22;;;;;;;1.88;1.60;;;;;15.10;93786.00;;;;7400927;19;20540;-76
2023/07/05 02:57:56;;;;;;;2.65;1.70;;;;;14.90;93794.00;;;;7397548;19;20156;-77
2023/07/05 03:00:30;;;;;;;6.03;2.20;;;;;15.00;93788.00;;;;7399047;19;20597;-76
2023/07/05 03:03:05;;;;;;;2.80;1.70;;;;;15.00;93785.00;;;;7400324;19;20560;-76
2023/07/05 03:05:32;;;;;;;2.22;1.60;;;;;14.90;93784.00;;;;7399709;19;20140;-76
2023/07/05 03:08:07;;;;;;;3.33;1.67;;;;;14.70;93786.00;;;;7396011;19;20156;-76
2023/07/05 03:10:45;;;;;;;4.15;1.85;;;;;14.60;93790.00;;;;7393397;19;20246;-76
2023/07/05 03:13:21;;;;;;;3.45;2.00;;;;;14.70;93794.00;;;;7399750;19;20238;-76
2023/07/05 03:15:49;;;;;;;3.35;1.80;;;;;14.80;93790.00;;;;7397010;19;20668;-75
2023/07/05 03:18:30;;;;;;;3.42;1.90;;;;;14.60;93789.00;;;;7394778;19;20616;-73
2023/07/05 03:21:06;;;;;;;2.30;1.88;;;;;14.50;93802.00;;;;7395310;19;20238;-74
2023/07/05 03:23:34;;;;;;;1.98;1.70;;;;;14.50;93793.00;;;;7396803;19;20485;-79
2023/07/05 03:26:08;;;;;;;2.50;1.90;;;;;14.40;93786.00;;;;7395135;19;20520;-78
2023/07/05 03:28:42;;;;;;;2.78;1.65;;;;;14.30;93789.00;;;;7396365;19;20147;-78
2023/07/05 03:31:13;;;;;;;2.13;1.83;;;;;14.20;93785.00;;;;7395685;19;20177;-77
2023/07/05 03:33:51;;;;;;;2.80;1.90;;;;;14.40;93797.00;;;;7394727;19;20633;-77
2023/07/05 03:36:20;;;;;;;2.78;1.95;;;;;14.40;93789.00;;;;7395439;19;20601;-77
2023/07/05 03:39:02;;;;;;;2.45;1.88;;;;;14.40;93801.00;;;;7396028;19;20154;-77
2023/07/05 03:41:37;;;;;;;1.95;1.60;;;;;14.20;93806.00;;;;7394943;19;20160;-78
2023/07/05 03:44:12;;;;;;;1.67;1.48;;;;;14.20;93808.00;;;;7394547;19;20147;-77
2023/07/05 03:46:52;;;;;;;2.72;2.00;;;;;14.40;93807.00;;;;7393027;19;20688;-80
2023/07/05 03:49:28;;;;;;;3.30;1.70;;;;;14.40;93809.00;;;;7394974;19;20151;-78
2023/07/05 03:51:56;;;;;;;5.05;1.70;;;;;14.30;93803.00;;;;7394943;19;20505;-78
2023/07/05 03:54:28;;;;;;;2.22;1.90;;;;;14.40;93814.00;;;;7394171;19;20228;-79
2023/07/05 03:57:02;;;;;;;3.80;2.17;;;;;14.50;93815.00;;;;7394111;19;20243;-78
2023/07/05 03:59:30;;;;;;;2.40;1.75;;;;;14.50;93813.00;;;;7393786;19;20169;-79
2023/07/05 04:02:04;;;;;;;3.28;1.75;;;;;14.50;93813.00;;;;7392283;19;20614;-78
2023/07/05 04:04:32;;;;;;;2.35;1.70;;;;;14.50;93808.00;;;;7401609;19;20140;-78
2023/07/05 04:07:10;;;;;;;2.88;1.73;;;;;14.50;93812.00;;;;7399295;19;20152;-80
2023/07/05 04:09:46;;;;;;;2.13;1.92;;;;;14.60;93807.00;;;;7401908;19;20140;-79
2023/07/05 04:12:14;;;;;;;2.60;1.55;;;;;14.60;93803.00;;;;7400878;19;20153;-79
2023/07/05 04:15:06;;;;;;;4.10;1.63;;;;;14.70;93799.00;;;;7401564;19;20148;-79
2023/07/05 04:17:34;;;;;;;3.30;2.05;;;;;14.70;93792.00;;;;7402019;19;20149;-80
2023/07/05 04:20:13;;;;;;;5.35;1.65;;;;;14.60;93787.00;;;;7400518;19;20146;-78
2023/07/05 04:22:48;;;;;;;4.00;1.83;;;;;14.60;93790.00;;;;7400755;19;20482;-79
2023/07/05 04:25:23;;;;;;;1.92;1.70;;;;;14.40;93787.00;;;;7400722;19;20620;-80
2023/07/05 04:27:53;;;;;;;3.47;1.75;;;;;14.40;93788.00;;;;7402139;19;20136;-78
2023/07/05 04:30:29;;;;;;;2.28;1.95;;;;;14.30;93776.00;;;;7401258;19;20125;-77
2023/07/05 04:32:57;;;;;;;2.53;1.65;;;;;14.40;93779.00;;;;7402617;19;20601;-79
2023/07/05 04:35:44;;;;;;;1.98;1.77;;;;;14.60;93784.00;;;;7400064;19;20140;-78
2023/07/05 04:38:19;;;;;;;2.08;1.80;;;;;14.80;93780.00;;;;7401679;19;20158;-77
2023/07/05 04:41:04;;;;;;;2.55;1.83;;;;;15.00;93779.00;;;;7398120;19;20169;-80
2023/07/05 04:43:39;;;;;;;4.10;1.80;;;;;15.20;93772.00;;;;7400846;19;20137;-77
2023/07/05 04:46:13;;;;;;;3.38;1.60;;;;;15.00;93757.00;;;;7401770;19;20139;-78
2023/07/05 04:48:47;;;;;;;2.72;1.80;;;;;15.30;93760.00;;;;7400196;19;20489;-79
2023/07/05 04:51:15;;;;;;;2.05;1.88;;;;;15.20;93768.00;;;;7398641;19;20145;-78
2023/07/05 04:53:43;;;;;;;2.85;2.05;;;;;15.20;93755.00;;;;7400519;19;20613;-80
2023/07/05 04:56:17;;;;;;;1.75;1.63;;;;;15.20;93747.00;;;;7399775;19;20614;-78
2023/07/05 04:58:51;;;;;;;3.55;2.00;;;;;15.30;93750.00;;;;7399986;19;20156;-79
2023/07/05 05:01:19;;;;;;;2.67;2.03;;;;;15.40;93752.00;;;;7400240;19;20224;-79
2023/07/05 05:03:53;;;;;;;5.20;2.20;;;;;15.30;93755.00;;;;7399475;19;20139;-78
2023/07/05 05:06:27;;;;;;;2.45;1.88;;;;;15.60;93752.00;;;;7399837;19;20158;-78
2023/07/05 05:09:02;;;;;;;4.57;2.00;;;;;15.70;93750.00;;;;7400127;19;20611;-80
2023/07/05 05:11:31;;;;;;;5.22;2.00;;;;;15.90;93735.00;;;;7398788;19;20166;-79
2023/07/05 05:14:06;;;;;;;2.28;1.90;;;;;16.20;93743.00;;;;7398486;19;20580;-79
2023/07/05 05:16:34;;;;;;;3.60;2.08;;;;;16.30;93744.00;;;;7400221;19;20148;-77
2023/07/05 05:19:08;;;;;;;2.92;2.03;;;;;16.50;93740.00;;;;7399514;19;20212;-78
2023/07/05 05:21:42;;;;;;;2.75;1.95;;;;;16.70;93744.00;;;;7399275;19;20136;-79
2023/07/05 05:24:17;;;;;;;3.42;2.42;;;;;17.00;93758.00;;;;7396571;19;20136;-78
2023/07/05 05:26:51;;;;;;;3.78;2.20;;;;;17.30;93747.00;;;;7398364;19;20489;-78
2023/07/05 05:29:26;;;;;;;4.57;2.00;;;;;17.70;93752.00;;;;7398351;19;20137;-79
2023/07/05 05:32:01;;;;;;;4.60;2.45;;;;;17.60;93769.00;;;;7398354;19;20223;-78
2023/07/05 05:34:31;;;;;;;3.88;1.88;;;;;17.50;93772.00;;;;7395498;19;20592;-80
2023/07/05 05:37:06;;;;;;;3.17;2.22;;;;;17.10;93800.00;;;;7396861;19;20158;-79
2023/07/05 05:39:39;;;;;;;4.10;2.13;;;;;16.70;93809.00;;;;7371115;19;20527;-77
2023/07/05 05:42:22;;;;;;;2.80;2.05;;;;;15.90;93803.00;;;;7378343;19;20183;-79
2023/07/05 05:44:49;;;;;;;3.53;1.70;;;;;15.30;93814.00;;;;7388035;19;20509;-78
2023/07/05 05:47:23;;;;;;;2.30;1.70;;;;;15.10;93803.00;;;;7387819;19;20128;-77
2023/07/05 05:49:58;;;;;;;1.83;1.50;;;;;15.00;93817.00;;;;7387485;19;20128;-77
2023/07/05 05:52:38;;;;;;;2.38;1.65;;;;;15.20;93828.00;;;;7390237;19;20196;-78
2023/07/05 05:55:06;;;;;;;1.50;1.40;;;;;14.70;93823.00;;;;7389636;19;20152;-77
2023/07/05 05:59:16;;;;;;;4.10;1.45;;;;;14.70;93835.00;;;;6767516;19;12726637;-77
2023/07/05 06:01:51;;;;;;;2.20;1.50;;;;;14.50;93853.00;;;;7420209;19;20172;-76
2023/07/05 06:04:25;;;;;;;1.65;1.55;;;;;14.40;93853.00;;;;7419336;19;20148;-80
2023/07/05 06:07:07;;;;;;;2.38;1.70;;;;;14.20;93853.00;;;;7420279;19;20513;-77
2023/07/05 06:09:48;;;;;;;1.85;1.55;;;;;14.20;93855.00;;;;7417669;19;20140;-78
2023/07/05 06:12:23;;;;;;;2.33;1.83;;;;;14.20;93853.00;;;;7418629;19;20153;-78
2023/07/05 06:14:57;;;;;;;2.13;1.88;;;;;14.10;93861.00;;;;7420211;19;20132;-77
2023/07/05 06:17:31;;;;;;;2.58;1.80;;;;;14.00;93876.00;;;;7417255;19;20155;-77
2023/07/05 06:20:01;;;;;;;2.58;1.70;;;;;14.00;93873.00;;;;7418869;19;20166;-76
2023/07/05 06:22:39;;;;;;;4.80;2.00;;;;;14.00;93882.00;;;;7417472;19;20148;-79
2023/07/05 06:25:13;;;;;;;1.98;1.70;;;;;13.90;93884.00;;;;7418421;19;20571;-78
2023/07/05 06:27:47;;;;;;;2.80;1.80;;;;;13.80;93879.00;;;;7418051;19;20603;-77
2023/07/05 06:30:17;;;;;;;2.35;1.98;;;;;13.80;93882.00;;;;7418210;19;20624;-80
2023/07/05 06:32:55;;;;;;;2.15;1.63;;;;;13.70;93886.00;;;;7418934;19;20132;-77
2023/07/05 06:35:22;;;;;;;3.90;1.73;;;;;13.70;93893.00;;;;7417332;19;20148;-75
2023/07/05 06:37:56;;;;;;;4.30;1.75;;;;;13.60;93889.00;;;;7417633;19;20132;-77
2023/07/05 06:40:24;;;;;;;1.75;1.52;;;;;13.80;93899.00;;;;7418007;19;20144;-78
2023/07/05 06:42:52;;;;;;;1.60;1.50;;;;;13.60;93904.00;;;;7420071;19;20128;-77
2023/07/05 06:45:26;;;;;;;2.40;1.67;;;;;13.70;93895.00;;;;7419170;19;20131;-79
2023/07/05 06:48:05;;;;;;;1.63;1.52;;;;;14.10;93883.00;;;;7418033;19;20215;-79
2023/07/05 06:50:38;;;;;;;1.98;1.67;;;;;14.60;93888.00;;;;7417489;19;20135;-79
2023/07/05 06:53:12;;;;;;;3.78;1.80;;;;;14.60;93896.00;;;;7417623;19;20133;-77
2023/07/05 06:56:09;;;;;;;2.50;1.70;;;;;14.50;93895.00;;;;7416170;19;20468;-78
2023/07/05 06:58:50;;;;;;;1.92;1.40;;;;;14.40;93905.00;;;;7417509;19;20728;-77
2023/07/05 07:01:24;;;;;;;6.25;1.50;;;;;14.40;93902.00;;;;7418453;19;20630;-77
2023/07/05 07:03:54;;;;;;;4.40;1.90;;;;;14.40;93901.00;;;;7417010;19;20169;-78
2023/07/05 07:06:31;;;;;;;2.97;1.52;;;;;14.40;93916.00;;;;7416744;19;20132;-81
2023/07/05 07:09:06;;;;;;;2.22;1.85;;;;;14.50;93922.00;;;;7404585;19;20160;-80
2023/07/05 07:11:40;;;;;;;1.48;1.38;;;;;14.40;93907.00;;;;7389044;19;20133;-79
2023/07/05 07:14:08;;;;;;;1.67;1.50;;;;;14.90;93891.00;;;;7389273;19;20588;-78
2023/07/05 07:16:48;;;;;;;1.60;1.50;;;;;15.50;93921.00;;;;7387576;19;20157;-79
2023/07/05 07:19:23;;;;;;;2.13;1.60;;;;;15.50;93899.00;;;;7387171;19;20515;-78
2023/07/05 07:21:57;;;;;;;2.13;1.40;;;;;14.90;93913.00;;;;7388341;19;20157;-75
2023/07/05 07:24:31;;;;;;;1.88;1.40;;;;;14.70;93891.00;;;;7384032;19;20158;-79
2023/07/05 07:27:05;;;;;;;2.38;1.60;;;;;14.80;93904.00;;;;7386635;19;20152;-79
2023/07/05 07:29:42;;;;;;;2.58;1.42;;;;;15.20;93905.00;;;;7388435;19;20148;-76
2023/07/05 07:32:24;;;;;;;1.63;1.52;;;;;15.10;93906.00;;;;7388397;19;20596;-78
2023/07/05 07:34:59;;;;;;;2.75;1.08;;;;;15.20;93913.00;;;;7388660;19;20146;-74
2023/07/05 07:37:34;;;;;;;1.55;1.45;;;;;15.00;93915.00;;;;7387465;19;20609;-75
2023/07/05 07:40:13;;;;;;;2.03;1.52;;;;;15.00;93924.00;;;;7387876;19;20473;-76
2023/07/05 07:42:49;;;;;;;2.00;1.63;;;;;15.20;93933.00;;;;7387640;19;20174;-78
2023/07/05 07:45:24;;;;;;;4.45;1.70;;;;;15.00;93938.00;;;;7387169;19;20141;-80
2023/07/05 07:47:58;;;;;;;1.98;1.77;;;;;15.30;93926.00;;;;7387729;19;20145;-77
2023/07/05 07:50:34;;;;;;;2.10;1.73;;;;;15.20;93929.00;;;;7387202;19;20136;-78
2023/07/05 07:53:03;;;;;;;2.50;1.90;;;;;15.50;93916.00;;;;7389277;19;20453;-75
2023/07/05 07:55:38;;;;;;;2.50;1.77;;;;;15.50;93929.00;;;;7387931;19;20165;-77
2023/07/05 07:58:13;;;;;;;2.65;2.25;;;;;15.60;93933.00;;;;7387121;19;20217;-75
2023/07/05 08:00:47;;;;;;;2.70;2.03;;;;;14.90;93938.00;;;;7386067;19;20201;-75
2023/07/05 08:03:21;;;;;;;4.25;2.33;;;;;14.90;93955.00;;;;7389373;19;20476;-78
2023/07/05 08:05:56;;;;;;;3.03;2.17;;;;;14.80;93965.00;;;;7387439;19;20173;-79
2023/07/05 08:08:30;;;;;;;2.55;2.35;;;;;14.80;93961.00;;;;7387161;19;20145;-77
2023/07/05 08:11:05;;;;;;;4.00;2.83;;;;;14.60;93974.00;;;;7384002;19;20627;-81
2023/07/05 08:13:40;;;;;;;6.45;3.13;;;;;14.70;93965.00;;;;7388774;19;20224;-77
2023/07/05 08:16:16;;;;;;;4.50;3.10;;;;;14.90;93966.00;;;;7385507;19;20691;-80
2023/07/05 08:18:44;;;;;;;3.15;2.75;;;;;15.30;93964.00;;;;7387266;19;20143;-75
2023/07/05 08:21:14;;;;;;;3.28;2.53;;;;;15.80;93938.00;;;;7387240;19;20611;-77
2023/07/05 08:23:48;;;;;;;4.88;2.83;;;;;16.20;93943.00;;;;7388181;19;20139;-78
2023/07/05 08:26:22;;;;;;;3.40;2.63;;;;;15.70;93944.00;;;;7387192;19;20159;-77
2023/07/05 08:28:58;;;;;;;5.43;2.90;;;;;15.70;93934.00;;;;7385542;19;20493;-79
2023/07/05 08:31:32;;;;;;;3.42;2.65;;;;;15.50;93957.00;;;;7389122;19;20154;-77
2023/07/05 08:34:01;;;;;;;4.22;3.08;;;;;15.80;93952.00;;;;7387424;19;20161;-78
2023/07/05 08:36:39;;;;;;;5.38;2.53;;;;;14.70;93941.00;;;;7390879;19;20170;-77
2023/07/05 08:39:08;;;;;;;3.08;2.78;;;;;15.30;93958.00;;;;7388635;19;20157;-76
2023/07/05 08:41:43;;;;;;;4.53;2.92;;;;;15.50;93948.00;;;;7389736;19;20128;-76
2023/07/05 08:44:30;;;;;;;4.10;2.80;;;;;15.60;93938.00;;;;7388030;19;20468;-76
2023/07/05 08:47:12;;;;;;;3.78;2.63;;;;;16.20;93930.00;;;;7388575;19;20153;-78
2023/07/05 08:49:54;;;;;;;4.30;3.17;;;;;16.80;93937.00;;;;7387404;19;20182;-75
2023/07/05 08:52:43;;;;;;;4.63;3.25;;;;;16.90;93952.00;;;;7388742;19;20137;-77
2023/07/05 08:55:30;;;;;;;5.85;3.38;;;;;16.40;93947.00;;;;7387928;19;20620;-77
2023/07/05 08:58:07;;;;;;;6.45;3.40;;;;;16.80;93944.00;;;;7387340;19;20193;-74
2023/07/05 09:00:48;;;;;;;3.47;3.05;;;;;17.20;93954.00;;;;7387986;19;20141;-76
2023/07/05 09:03:28;;;;;;;4.70;3.25;;;;;17.30;93958.00;;;;7386856;19;20734;-76
2023/07/05 09:06:32;;;;;;;6.63;3.30;;;;;17.70;93965.00;;;;7385694;19;20169;-79
2023/07/05 09:09:42;;;;;;;4.70;3.63;;;;;17.30;93966.00;;;;7385990;19;20149;-77
2023/07/05 09:12:39;;;;;;;4.82;3.67;;;;;17.50;93977.00;;;;7383754;19;20156;-77
2023/07/05 09:15:22;;;;;;;5.22;4.05;;;;;17.30;93972.00;;;;7396686;19;20173;-78
2023/07/05 09:18:25;;;;;;;4.13;3.60;;;;;17.40;93975.00;;;;7396109;19;20128;-78
2023/07/05 09:21:20;;;;;;;4.35;3.40;;;;;17.50;93968.00;;;;7384818;19;20148;-76
2023/07/05 09:24:17;;;;;;;4.43;3.67;;;;;17.80;93975.00;;;;7387491;19;20163;-77
2023/07/05 09:26:55;;;;;;;4.90;3.25;;;;;17.90;93968.00;;;;7385569;19;20649;-75
2023/07/05 09:29:44;;;;;;;6.18;3.72;;;;;18.70;93966.00;;;;7384222;19;20611;-76
2023/07/05 09:32:27;;;;;;;3.35;2.97;;;;;18.70;93980.00;;;;7384645;19;20186;-79
2023/07/05 09:35:02;;;;;;;4.32;3.47;;;;;19.40;93979.00;;;;7386607;19;20133;-77
2023/07/05 09:37:39;;;;;;;6.07;3.92;;;;;19.50;93973.00;;;;7384955;19;20164;-78
2023/07/05 09:40:20;;;;;;;4.70;3.65;;;;;19.70;94013.00;;;;7385320;19;20585;-76
2023/07/05 09:42:59;;;;;;;5.05;3.83;;;;;18.60;93980.00;;;;7386001;19;20148;-77
2023/07/05 09:45:27;;;;;;;5.13;3.40;;;;;18.70;93987.00;;;;7389350;19;20155;-77
2023/07/05 09:48:05;;;;;;;7.15;3.67;;;;;19.20;93991.00;;;;7384428;19;20153;-79
2023/07/05 09:50:33;;;;;;;4.72;3.85;;;;;20.20;93998.00;;;;7385267;19;20148;-79
2023/07/05 09:53:38;;;;;;;8.25;3.45;;;;;19.40;93999.00;;;;7385543;19;20128;-75
2023/07/05 09:56:26;;;;;;;5.97;3.58;;;;;20.00;93995.00;;;;7385840;19;20223;-76
2023/07/05 09:59:13;;;;;;;5.45;3.90;;;;;20.60;93992.00;;;;7384330;19;20177;-79
2023/07/05 10:01:55;;;;;;;4.00;3.60;;;;;21.30;93995.00;;;;7387041;19;20201;-78
2023/07/05 10:04:30;;;;;;;4.97;3.72;;;;;21.40;93995.00;;;;7397408;19;20152;-79
2023/07/05 10:07:03;;;;;;;4.88;3.55;;;;;21.30;94033.00;;;;7409264;19;20149;-76
2023/07/05 10:09:55;;;;;;;3.80;3.22;;;;;21.10;94008.00;;;;7405609;19;20172;-76
2023/07/05 10:12:33;;;;;;;4.70;3.40;;;;;20.50;94011.00;;;;7388841;19;20125;-78
2023/07/05 10:15:24;;;;;;;4.55;3.05;;;;;20.90;94003.00;;;;7384441;19;20489;-77
2023/07/05 10:18:22;;;;;;;4.32;3.22;;;;;20.10;94004.00;;;;7382925;19;20148;-77
2023/07/05 10:21:00;;;;;;;4.95;3.08;;;;;20.10;94008.00;;;;7384976;19;20126;-76
2023/07/05 10:23:32;;;;;;;5.90;3.30;;;;;19.50;94012.00;;;;7382266;19;20184;-78
2023/07/05 10:26:10;;;;;;;4.00;3.15;;;;;21.00;94011.00;;;;7384374;19;20160;-73
2023/07/05 10:28:41;;;;;;;4.03;2.97;;;;;20.10;94017.00;;;;7386406;19;20243;-79
2023/07/05 10:31:30;;;;;;;4.00;3.10;;;;;20.10;94028.00;;;;7384831;19;20129;-78
2023/07/05 10:34:16;;;;;;;3.35;2.95;;;;;20.30;94034.00;;;;7385125;19;20189;-79
2023/07/05 10:36:48;;;;;;;4.60;2.90;;;;;20.60;94037.00;;;;7386255;19;20154;-75
2023/07/05 10:39:26;;;;;;;4.28;2.60;;;;;20.20;94038.00;;;;7385558;19;21188;-75
2023/07/05 10:42:00;;;;;;;3.95;2.72;;;;;21.10;94037.00;;;;7385589;19;20136;-76
2023/07/05 10:44:39;;;;;;;3.03;2.72;;;;;21.70;94024.00;;;;7387056;19;20598;-78
2023/07/05 10:47:14;;;;;;;3.70;3.05;;;;;21.00;94053.00;;;;7390996;19;20155;-77
2023/07/05 10:49:57;;;;;;;4.18;2.97;;;;;21.20;94073.00;;;;7389569;19;20216;-75
2023/07/05 10:52:33;;;;;;;4.15;2.83;;;;;20.80;94046.00;;;;7392552;19;20125;-77
2023/07/05 10:55:20;;;;;;;4.05;2.90;;;;;21.20;94044.00;;;;7391429;19;20157;-74
2023/07/05 10:57:53;;;;;;;4.20;2.47;;;;;20.70;94043.00;;;;7388754;19;20160;-74
2023/07/05 11:00:56;;;;;;;5.68;2.90;;;;;21.30;94054.00;;;;7389290;19;20173;-78
2023/07/05 11:03:58;;;;;;;5.10;2.60;;;;;20.70;94053.00;;;;7388371;19;20238;-76
2023/07/05 11:06:40;;;;;;;2.80;2.40;;;;;21.30;94051.00;;;;7388919;19;21417;-75
2023/07/05 11:09:14;;;;;;;4.95;2.50;;;;;21.00;94051.00;;;;7388529;19;20291;-76
2023/07/05 11:11:53;;;;;;;3.58;2.28;;;;;21.30;94042.00;;;;7387348;19;20211;-77
2023/07/05 11:14:25;;;;;;;3.15;2.45;;;;;21.00;94051.00;;;;7391157;19;20156;-74
2023/07/05 11:17:00;;;;;;;4.00;3.03;;;;;21.10;94029.00;;;;7392796;19;20125;-76
2023/07/05 11:19:35;;;;;;;3.15;2.80;;;;;21.10;94038.00;;;;7390816;19;20163;-76
2023/07/05 11:22:40;;;;;;;3.35;2.70;;;;;22.80;94053.00;;;;7390200;19;20464;-74
2023/07/05 11:25:15;;;;;;;2.72;2.22;;;;;21.80;94034.00;;;;7393105;19;20136;-76
2023/07/05 11:27:54;;;;;;;5.10;2.83;;;;;21.70;94046.00;;;;7390526;19;20624;-75
2023/07/05 11:30:44;;;;;;;3.00;2.40;;;;;22.10;94049.00;;;;7388903;19;20576;-76
2023/07/05 11:33:21;;;;;;;3.17;2.30;;;;;21.60;94031.00;;;;7390398;19;20266;-73
2023/07/05 11:36:05;;;;;;;4.50;2.42;;;;;21.90;94048.00;;;;7388239;19;20133;-74
2023/07/05 11:38:37;;;;;;;2.78;2.10;;;;;21.40;94039.00;;;;7388531;19;20133;-75
2023/07/05 11:41:25;;;;;;;2.35;2.15;;;;;22.30;94038.00;;;;7390702;19;20164;-75
2023/07/05 11:44:25;;;;;;;3.85;2.20;;;;;22.00;94049.00;;;;7394097;19;20251;-77
2023/07/05 11:46:59;;;;;;;9.73;2.50;;;;;21.60;94040.00;;;;7393649;19;20152;-76
2023/07/05 11:49:36;;;;;;;3.88;2.50;;;;;22.50;94041.00;;;;7389111;19;20152;-78
2023/07/05 11:52:12;;;;;;;3.67;2.30;;;;;22.80;94056.00;;;;7391065;19;20145;-76
2023/07/05 11:54:55;;;;;;;3.42;2.30;;;;;22.00;94051.00;;;;7389723;19;20165;-77
2023/07/05 11:58:14;;;;;;;3.25;2.20;;;;;22.80;94047.00;;;;7387847;19;20140;-73
2023/07/05 12:00:51;;;;;;;4.32;2.47;;;;;22.80;94030.00;;;;7388816;19;20608;-73
2023/07/05 12:03:30;;;;;;;3.13;2.47;;;;;22.90;94042.00;;;;7390483;19;20149;-75
2023/07/05 12:06:10;;;;;;;7.47;2.45;;;;;23.10;94044.00;;;;7389641;19;20125;-74
2023/07/05 12:08:48;;;;;;;3.67;2.22;;;;;22.50;94047.00;;;;7390741;19;20129;-78
2023/07/05 12:11:30;;;;;;;2.80;2.38;;;;;22.00;94073.00;;;;7386546;19;20152;-74
2023/07/05 12:14:16;;;;;;;3.10;2.17;;;;;21.70;94050.00;;;;7387862;19;21125;-78
2023/07/05 12:16:52;;;;;;;2.20;2.00;;;;;21.70;94057.00;;;;7390327;19;20647;-77
2023/07/05 12:19:30;;;;;;;4.85;2.55;;;;;22.00;94051.00;;;;7390818;19;20149;-79
2023/07/05 12:22:09;;;;;;;5.20;2.60;;;;;21.90;94064.00;;;;7390821;19;20163;-77
2023/07/05 12:24:45;;;;;;;3.75;2.80;;;;;21.70;94055.00;;;;7390919;19;20152;-79
2023/07/05 12:27:24;;;;;;;3.15;2.22;;;;;22.90;94057.00;;;;7390631;19;20156;-77
2023/07/05 12:30:00;;;;;;;5.43;2.30;;;;;22.60;94064.00;;;;7392618;19;20626;-79
2023/07/05 12:32:36;;;;;;;3.03;2.30;;;;;21.90;94053.00;;;;7390736;19;20156;-78
2023/07/05 12:35:10;;;;;;;2.30;2.05;;;;;22.00;94065.00;;;;7387871;19;20204;-77
2023/07/05 12:37:53;;;;;;;2.90;2.45;;;;;21.00;94057.00;;;;7388776;19;20684;-75
2023/07/05 12:40:35;;;;;;;3.58;2.00;;;;;22.90;94098.00;;;;7386982;19;20149;-75
2023/07/05 12:43:19;;;;;;;3.40;2.67;;;;;22.30;94055.00;;;;7388778;19;20789;-74
2023/07/05 12:46:05;;;;;;;7.18;2.38;;;;;22.70;94065.00;;;;7386679;19;20592;-75
2023/07/05 12:48:39;;;;;;;4.68;2.25;;;;;22.20;94055.00;;;;7388442;19;20180;-80
2023/07/05 12:51:19;;;;;;;3.40;2.38;;;;;22.10;94059.00;;;;7386656;19;20236;-77
2023/07/05 12:54:03;;;;;;;2.90;2.55;;;;;21.20;94062.00;;;;7388599;19;20132;-76
2023/07/05 12:56:37;;;;;;;2.20;2.00;;;;;22.00;94069.00;;;;7384750;19;20179;-76
2023/07/05 12:59:36;;;;;;;4.05;2.35;;;;;23.10;94080.00;;;;7385037;19;20168;-78
2023/07/05 13:02:31;;;;;;;3.13;2.20;;;;;23.20;94074.00;;;;7391329;19;20187;-76
2023/07/05 13:05:06;;;;;;;3.55;2.10;;;;;22.80;94067.00;;;;7387083;19;20156;-79
2023/07/05 13:07:41;;;;;;;2.83;2.10;;;;;22.10;94074.00;;;;7385534;19;20870;-76
2023/07/05 13:10:15;;;;;;;2.42;1.80;;;;;20.70;94081.00;;;;7384743;19;20140;-74
2023/07/05 13:12:47;;;;;;;3.25;2.05;;;;;22.00;94074.00;;;;7386288;19;20158;-78